sensor_id;sensor_type;location;lat;lon;timestamp;temperature;humidity
14771;DHT22;7477;45.222;5.688;2023-02-28T00:00:48;3.60;96.90
14771;DHT22;7477;45.222;5.688;2023-02-28T00:04:07;3.60;97.00
14771;DHT22;7477;45.222;5.688;2023-02-28T00:07:29;3.60;96.90
14771;DHT22;7477;45.222;5.688;2023-02-28T00:10:48;3.60;97.00
14771;DHT22;7477;45.222;5.688;2023-02-28T00:14:08;3.70;97.00
14771;DHT22;7477;45.222;5.688;2023-02-28T00:17:27;3.70;97.00
14771;DHT22;7477;45.222;5.688;2023-02-28T00:20:46;3.60;97.00
14771;DHT22;7477;45.222;5.688;2023-02-28T00:24:05;3.60;97.10
14771;DHT22;7477;45.222;5.688;2023-02-28T00:27:25;3.70;97.30
14771;DHT22;7477;45.222;5.688;2023-02-28T00:30:44;3.70;97.50
14771;DHT22;7477;45.222;5.688;2023-02-28T00:34:04;3.70;97.40
14771;DHT22;7477;45.222;5.688;2023-02-28T00:37:23;3.70;97.70
14771;DHT22;7477;45.222;5.688;2023-02-28T00:40:43;3.60;97.80
14771;DHT22;7477;45.222;5.688;2023-02-28T00:44:02;3.70;98.00
14771;DHT22;7477;45.222;5.688;2023-02-28T00:47:21;3.70;98.00
14771;DHT22;7477;45.222;5.688;2023-02-28T00:50:41;3.70;98.10
14771;DHT22;7477;45.222;5.688;2023-02-28T00:54:00;3.60;98.30
14771;DHT22;7477;45.222;5.688;2023-02-28T00:57:20;3.70;98.20
14771;DHT22;7477;45.222;5.688;2023-02-28T01:00:40;3.70;98.00
14771;DHT22;7477;45.222;5.688;2023-02-28T01:03:59;3.70;97.90
14771;DHT22;7477;45.222;5.688;2023-02-28T01:07:19;3.70;98.10
14771;DHT22;7477;45.222;5.688;2023-02-28T01:10:39;3.70;98.10
14771;DHT22;7477;45.222;5.688;2023-02-28T01:13:58;3.60;98.00
14771;DHT22;7477;45.222;5.688;2023-02-28T01:17:17;3.60;98.10
14771;DHT22;7477;45.222;5.688;2023-02-28T01:20:37;3.60;98.00
14771;DHT22;7477;45.222;5.688;2023-02-28T01:23:57;3.70;97.80
14771;DHT22;7477;45.222;5.688;2023-02-28T01:27:17;3.70;97.90
14771;DHT22;7477;45.222;5.688;2023-02-28T01:30:36;3.60;98.30
14771;DHT22;7477;45.222;5.688;2023-02-28T01:33:56;3.60;98.40
14771;DHT22;7477;45.222;5.688;2023-02-28T01:37:15;3.60;98.20
14771;DHT22;7477;45.222;5.688;2023-02-28T01:40:34;3.50;98.10
14771;DHT22;7477;45.222;5.688;2023-02-28T01:43:58;3.40;98.00
14771;DHT22;7477;45.222;5.688;2023-02-28T01:47:17;3.40;97.90
14771;DHT22;7477;45.222;5.688;2023-02-28T01:50:40;3.40;97.80
14771;DHT22;7477;45.222;5.688;2023-02-28T01:54:08;3.30;97.70
14771;DHT22;7477;45.222;5.688;2023-02-28T01:57:35;3.30;97.80
14771;DHT22;7477;45.222;5.688;2023-02-28T02:00:56;3.30;97.80
14771;DHT22;7477;45.222;5.688;2023-02-28T02:04:16;3.30;97.80
14771;DHT22;7477;45.222;5.688;2023-02-28T02:07:40;3.40;97.90
14771;DHT22;7477;45.222;5.688;2023-02-28T02:11:01;3.40;97.90
14771;DHT22;7477;45.222;5.688;2023-02-28T02:15:00;3.40;98.10
14771;DHT22;7477;45.222;5.688;2023-02-28T02:22:11;3.30;98.40
14771;DHT22;7477;45.222;5.688;2023-02-28T02:40:07;3.10;99.00
14771;DHT22;7477;45.222;5.688;2023-02-28T02:43:44;3.20;99.00
14771;DHT22;7477;45.222;5.688;2023-02-28T02:47:12;3.20;99.00
14771;DHT22;7477;45.222;5.688;2023-02-28T02:50:43;3.10;99.30
14771;DHT22;7477;45.222;5.688;2023-02-28T02:54:17;3.00;99.20
14771;DHT22;7477;45.222;5.688;2023-02-28T02:57:59;3.00;99.20
14771;DHT22;7477;45.222;5.688;2023-02-28T03:01:23;3.00;99.00
14771;DHT22;7477;45.222;5.688;2023-02-28T03:04:51;3.00;99.20
14771;DHT22;7477;45.222;5.688;2023-02-28T03:08:11;3.10;99.30
14771;DHT22;7477;45.222;5.688;2023-02-28T03:11:31;3.10;99.10
14771;DHT22;7477;45.222;5.688;2023-02-28T03:25:40;3.20;99.00
14771;DHT22;7477;45.222;5.688;2023-02-28T03:29:05;3.20;99.10
14771;DHT22;7477;45.222;5.688;2023-02-28T03:32:27;3.10;99.40
14771;DHT22;7477;45.222;5.688;2023-02-28T03:35:57;3.10;99.30
14771;DHT22;7477;45.222;5.688;2023-02-28T03:39:24;3.10;99.10
14771;DHT22;7477;45.222;5.688;2023-02-28T03:42:50;3.10;99.10
14771;DHT22;7477;45.222;5.688;2023-02-28T03:46:12;3.10;99.10
14771;DHT22;7477;45.222;5.688;2023-02-28T03:49:45;3.10;99.20
14771;DHT22;7477;45.222;5.688;2023-02-28T03:57:15;2.90;99.30
14771;DHT22;7477;45.222;5.688;2023-02-28T04:00:40;2.90;99.50
14771;DHT22;7477;45.222;5.688;2023-02-28T04:04:00;2.70;99.70
14771;DHT22;7477;45.222;5.688;2023-02-28T04:07:19;2.70;99.90
14771;DHT22;7477;45.222;5.688;2023-02-28T04:10:38;2.80;99.90
14771;DHT22;7477;45.222;5.688;2023-02-28T04:13:58;2.70;99.90
14771;DHT22;7477;45.222;5.688;2023-02-28T04:17:17;2.70;99.90
14771;DHT22;7477;45.222;5.688;2023-02-28T04:20:37;2.70;99.90
14771;DHT22;7477;45.222;5.688;2023-02-28T04:23:56;2.60;99.90
14771;DHT22;7477;45.222;5.688;2023-02-28T04:27:19;2.70;99.90
14771;DHT22;7477;45.222;5.688;2023-02-28T04:30:39;2.80;99.90
14771;DHT22;7477;45.222;5.688;2023-02-28T04:33:59;2.70;99.90
14771;DHT22;7477;45.222;5.688;2023-02-28T04:37:19;2.70;99.90
14771;DHT22;7477;45.222;5.688;2023-02-28T04:40:39;2.70;99.90
14771;DHT22;7477;45.222;5.688;2023-02-28T04:43:58;2.70;99.90
14771;DHT22;7477;45.222;5.688;2023-02-28T04:47:17;2.80;99.90
14771;DHT22;7477;45.222;5.688;2023-02-28T04:50:36;2.80;99.90
14771;DHT22;7477;45.222;5.688;2023-02-28T04:53:55;2.80;99.90
14771;DHT22;7477;45.222;5.688;2023-02-28T04:57:15;2.70;99.90
14771;DHT22;7477;45.222;5.688;2023-02-28T05:00:34;2.70;99.90
14771;DHT22;7477;45.222;5.688;2023-02-28T05:03:56;2.70;99.90
14771;DHT22;7477;45.222;5.688;2023-02-28T05:07:15;2.80;99.90
14771;DHT22;7477;45.222;5.688;2023-02-28T05:10:34;2.90;99.90
14771;DHT22;7477;45.222;5.688;2023-02-28T05:13:53;2.90;99.90
14771;DHT22;7477;45.222;5.688;2023-02-28T05:17:13;2.90;99.90
14771;DHT22;7477;45.222;5.688;2023-02-28T05:20:32;2.80;99.90
14771;DHT22;7477;45.222;5.688;2023-02-28T05:23:51;2.80;99.90
14771;DHT22;7477;45.222;5.688;2023-02-28T05:27:11;2.90;99.90
14771;DHT22;7477;45.222;5.688;2023-02-28T05:30:31;2.90;99.90
14771;DHT22;7477;45.222;5.688;2023-02-28T05:33:50;2.90;99.90
14771;DHT22;7477;45.222;5.688;2023-02-28T05:37:14;2.90;99.90
14771;DHT22;7477;45.222;5.688;2023-02-28T05:40:34;2.90;99.90
14771;DHT22;7477;45.222;5.688;2023-02-28T05:43:54;2.90;99.90
14771;DHT22;7477;45.222;5.688;2023-02-28T05:47:13;2.80;99.90
14771;DHT22;7477;45.222;5.688;2023-02-28T05:50:34;2.80;99.90
14771;DHT22;7477;45.222;5.688;2023-02-28T05:53:54;2.70;99.90
14771;DHT22;7477;45.222;5.688;2023-02-28T05:57:15;2.70;99.90
14771;DHT22;7477;45.222;5.688;2023-02-28T06:00:34;2.70;99.90
14771;DHT22;7477;45.222;5.688;2023-02-28T06:03:54;2.60;99.90
14771;DHT22;7477;45.222;5.688;2023-02-28T06:07:13;2.60;99.90
14771;DHT22;7477;45.222;5.688;2023-02-28T06:10:33;2.60;99.90
14771;DHT22;7477;45.222;5.688;2023-02-28T06:13:59;2.60;99.90
14771;DHT22;7477;45.222;5.688;2023-02-28T06:17:19;2.60;99.90
14771;DHT22;7477;45.222;5.688;2023-02-28T06:20:38;2.60;99.90
14771;DHT22;7477;45.222;5.688;2023-02-28T06:23:58;2.60;99.90
14771;DHT22;7477;45.222;5.688;2023-02-28T06:27:17;2.60;99.90
14771;DHT22;7477;45.222;5.688;2023-02-28T06:30:37;2.60;99.90
14771;DHT22;7477;45.222;5.688;2023-02-28T06:33:57;2.50;99.90
14771;DHT22;7477;45.222;5.688;2023-02-28T06:37:17;2.50;99.70
14771;DHT22;7477;45.222;5.688;2023-02-28T06:40:36;2.50;99.50
14771;DHT22;7477;45.222;5.688;2023-02-28T06:43:55;2.40;99.40
14771;DHT22;7477;45.222;5.688;2023-02-28T06:47:15;2.40;99.40
14771;DHT22;7477;45.222;5.688;2023-02-28T06:50:34;2.40;99.40
14771;DHT22;7477;45.222;5.688;2023-02-28T06:53:54;2.40;99.30
14771;DHT22;7477;45.222;5.688;2023-02-28T06:57:13;2.40;99.30
14771;DHT22;7477;45.222;5.688;2023-02-28T07:00:32;2.40;99.30
14771;DHT22;7477;45.222;5.688;2023-02-28T07:03:52;2.40;99.20
14771;DHT22;7477;45.222;5.688;2023-02-28T07:07:11;2.40;99.10
14771;DHT22;7477;45.222;5.688;2023-02-28T07:10:31;2.40;99.10
14771;DHT22;7477;45.222;5.688;2023-02-28T07:13:51;2.40;99.20
14771;DHT22;7477;45.222;5.688;2023-02-28T07:17:11;2.40;99.10
14771;DHT22;7477;45.222;5.688;2023-02-28T07:20:31;2.50;99.20
14771;DHT22;7477;45.222;5.688;2023-02-28T07:23:50;2.50;99.30
14771;DHT22;7477;45.222;5.688;2023-02-28T07:27:10;2.50;99.20
14771;DHT22;7477;45.222;5.688;2023-02-28T07:30:30;2.50;99.30
14771;DHT22;7477;45.222;5.688;2023-02-28T07:33:49;2.50;99.40
14771;DHT22;7477;45.222;5.688;2023-02-28T07:37:08;2.50;99.30
14771;DHT22;7477;45.222;5.688;2023-02-28T07:40:28;2.60;99.00
14771;DHT22;7477;45.222;5.688;2023-02-28T07:43:47;2.60;99.10
14771;DHT22;7477;45.222;5.688;2023-02-28T07:47:08;2.60;99.10
14771;DHT22;7477;45.222;5.688;2023-02-28T07:50:27;2.60;99.10
14771;DHT22;7477;45.222;5.688;2023-02-28T07:53:49;2.70;99.10
14771;DHT22;7477;45.222;5.688;2023-02-28T07:57:09;2.70;99.00
14771;DHT22;7477;45.222;5.688;2023-02-28T08:00:28;2.80;98.80
14771;DHT22;7477;45.222;5.688;2023-02-28T08:03:48;2.90;98.80
14771;DHT22;7477;45.222;5.688;2023-02-28T08:07:07;2.90;98.70
14771;DHT22;7477;45.222;5.688;2023-02-28T08:10:27;2.90;98.60
14771;DHT22;7477;45.222;5.688;2023-02-28T08:13:46;3.00;98.50
14771;DHT22;7477;45.222;5.688;2023-02-28T08:17:05;3.00;98.30
14771;DHT22;7477;45.222;5.688;2023-02-28T08:20:25;3.00;98.30
14771;DHT22;7477;45.222;5.688;2023-02-28T08:23:49;3.10;98.30
14771;DHT22;7477;45.222;5.688;2023-02-28T08:27:09;3.20;98.30
14771;DHT22;7477;45.222;5.688;2023-02-28T08:30:29;3.10;98.00
14771;DHT22;7477;45.222;5.688;2023-02-28T08:33:48;3.20;98.00
14771;DHT22;7477;45.222;5.688;2023-02-28T08:37:10;3.30;98.20
14771;DHT22;7477;45.222;5.688;2023-02-28T08:40:30;3.40;97.90
14771;DHT22;7477;45.222;5.688;2023-02-28T08:43:49;3.50;98.00
14771;DHT22;7477;45.222;5.688;2023-02-28T08:47:09;3.50;97.70
14771;DHT22;7477;45.222;5.688;2023-02-28T08:50:29;3.60;98.20
14771;DHT22;7477;45.222;5.688;2023-02-28T08:53:48;3.70;97.70
14771;DHT22;7477;45.222;5.688;2023-02-28T08:57:10;3.80;98.00
14771;DHT22;7477;45.222;5.688;2023-02-28T09:00:29;4.00;98.40
14771;DHT22;7477;45.222;5.688;2023-02-28T09:03:49;4.00;97.90
14771;DHT22;7477;45.222;5.688;2023-02-28T09:07:09;3.90;97.40
14771;DHT22;7477;45.222;5.688;2023-02-28T09:10:28;4.00;97.40
14771;DHT22;7477;45.222;5.688;2023-02-28T09:13:48;4.00;97.40
14771;DHT22;7477;45.222;5.688;2023-02-28T09:17:07;4.00;97.40
14771;DHT22;7477;45.222;5.688;2023-02-28T09:20:26;4.10;97.00
14771;DHT22;7477;45.222;5.688;2023-02-28T09:23:47;4.10;97.10
14771;DHT22;7477;45.222;5.688;2023-02-28T09:27:06;4.10;97.20
14771;DHT22;7477;45.222;5.688;2023-02-28T09:30:26;4.20;97.50
14771;DHT22;7477;45.222;5.688;2023-02-28T09:33:47;4.10;97.50
14771;DHT22;7477;45.222;5.688;2023-02-28T09:37:07;4.10;97.10
14771;DHT22;7477;45.222;5.688;2023-02-28T09:40:26;4.10;97.10
14771;DHT22;7477;45.222;5.688;2023-02-28T09:43:50;4.10;97.40
14771;DHT22;7477;45.222;5.688;2023-02-28T09:47:33;4.10;97.20
14771;DHT22;7477;45.222;5.688;2023-02-28T09:51:03;4.10;97.60
14771;DHT22;7477;45.222;5.688;2023-02-28T09:54:24;4.20;97.40
14771;DHT22;7477;45.222;5.688;2023-02-28T09:57:44;4.30;97.20
14771;DHT22;7477;45.222;5.688;2023-02-28T10:04:54;4.50;97.50
14771;DHT22;7477;45.222;5.688;2023-02-28T10:08:18;4.40;97.00
14771;DHT22;7477;45.222;5.688;2023-02-28T10:11:40;4.50;97.40
14771;DHT22;7477;45.222;5.688;2023-02-28T10:15:00;4.60;97.20
14771;DHT22;7477;45.222;5.688;2023-02-28T10:18:25;4.70;97.50
14771;DHT22;7477;45.222;5.688;2023-02-28T10:21:51;4.60;97.00
14771;DHT22;7477;45.222;5.688;2023-02-28T10:25:25;4.60;97.30
14771;DHT22;7477;45.222;5.688;2023-02-28T10:28:45;4.70;97.30
14771;DHT22;7477;45.222;5.688;2023-02-28T10:32:05;4.70;97.00
14771;DHT22;7477;45.222;5.688;2023-02-28T10:35:26;4.80;96.80
14771;DHT22;7477;45.222;5.688;2023-02-28T10:38:47;4.60;96.50
14771;DHT22;7477;45.222;5.688;2023-02-28T10:45:39;4.60;96.90
14771;DHT22;7477;45.222;5.688;2023-02-28T10:49:21;4.80;97.10
14771;DHT22;7477;45.222;5.688;2023-02-28T10:52:41;4.80;96.90
14771;DHT22;7477;45.222;5.688;2023-02-28T10:59:30;4.80;96.90
14771;DHT22;7477;45.222;5.688;2023-02-28T11:02:50;4.90;97.30
14771;DHT22;7477;45.222;5.688;2023-02-28T11:06:33;4.90;96.80
14771;DHT22;7477;45.222;5.688;2023-02-28T11:09:55;4.90;96.30
14771;DHT22;7477;45.222;5.688;2023-02-28T11:13:21;4.90;96.60
14771;DHT22;7477;45.222;5.688;2023-02-28T11:16:42;5.00;97.10
14771;DHT22;7477;45.222;5.688;2023-02-28T11:20:05;5.00;96.20
14771;DHT22;7477;45.222;5.688;2023-02-28T11:23:28;5.00;96.50
14771;DHT22;7477;45.222;5.688;2023-02-28T11:26:49;5.00;96.10
14771;DHT22;7477;45.222;5.688;2023-02-28T11:30:36;5.00;96.10
14771;DHT22;7477;45.222;5.688;2023-02-28T11:33:56;5.00;95.90
14771;DHT22;7477;45.222;5.688;2023-02-28T11:37:18;5.00;96.40
14771;DHT22;7477;45.222;5.688;2023-02-28T11:47:48;5.00;95.70
14771;DHT22;7477;45.222;5.688;2023-02-28T11:51:32;5.00;95.70
14771;DHT22;7477;45.222;5.688;2023-02-28T11:58:35;5.10;95.70
14771;DHT22;7477;45.222;5.688;2023-02-28T12:06:09;5.10;95.10
14771;DHT22;7477;45.222;5.688;2023-02-28T12:13:23;5.20;95.70
14771;DHT22;7477;45.222;5.688;2023-02-28T12:27:59;5.20;95.30
14771;DHT22;7477;45.222;5.688;2023-02-28T12:31:29;5.30;95.50
14771;DHT22;7477;45.222;5.688;2023-02-28T12:34:55;5.30;95.10
14771;DHT22;7477;45.222;5.688;2023-02-28T12:38:20;5.30;95.10
14771;DHT22;7477;45.222;5.688;2023-02-28T12:41:57;5.40;95.30
14771;DHT22;7477;45.222;5.688;2023-02-28T12:45:47;5.30;95.10
14771;DHT22;7477;45.222;5.688;2023-02-28T12:49:23;5.30;95.10
14771;DHT22;7477;45.222;5.688;2023-02-28T12:59:54;5.60;95.30
14771;DHT22;7477;45.222;5.688;2023-02-28T13:03:31;5.60;94.90
14771;DHT22;7477;45.222;5.688;2023-02-28T13:07:17;5.60;94.80
14771;DHT22;7477;45.222;5.688;2023-02-28T13:14:04;5.70;95.00
14771;DHT22;7477;45.222;5.688;2023-02-28T13:17:24;5.80;94.80
14771;DHT22;7477;45.222;5.688;2023-02-28T13:20:48;5.60;94.80
14771;DHT22;7477;45.222;5.688;2023-02-28T13:24:09;5.60;94.90
14771;DHT22;7477;45.222;5.688;2023-02-28T13:27:37;5.60;94.80
14771;DHT22;7477;45.222;5.688;2023-02-28T13:34:18;5.70;94.50
14771;DHT22;7477;45.222;5.688;2023-02-28T13:37:43;5.70;94.50
14771;DHT22;7477;45.222;5.688;2023-02-28T13:41:40;5.60;94.30
14771;DHT22;7477;45.222;5.688;2023-02-28T13:45:24;5.70;94.70
14771;DHT22;7477;45.222;5.688;2023-02-28T13:48:44;5.60;94.30
14771;DHT22;7477;45.222;5.688;2023-02-28T13:55:38;5.60;94.60
14771;DHT22;7477;45.222;5.688;2023-02-28T13:59:47;5.70;94.60
14771;DHT22;7477;45.222;5.688;2023-02-28T14:06:56;5.60;94.70
14771;DHT22;7477;45.222;5.688;2023-02-28T14:10:31;5.60;94.50
14771;DHT22;7477;45.222;5.688;2023-02-28T14:13:51;5.60;94.60
14771;DHT22;7477;45.222;5.688;2023-02-28T14:17:15;5.70;94.90
14771;DHT22;7477;45.222;5.688;2023-02-28T14:20:36;5.70;94.50
14771;DHT22;7477;45.222;5.688;2023-02-28T14:24:27;5.60;94.40
14771;DHT22;7477;45.222;5.688;2023-02-28T14:28:26;5.70;94.60
14771;DHT22;7477;45.222;5.688;2023-02-28T14:32:05;5.70;94.70
14771;DHT22;7477;45.222;5.688;2023-02-28T14:39:07;5.70;94.80
14771;DHT22;7477;45.222;5.688;2023-02-28T14:42:35;5.70;94.50
14771;DHT22;7477;45.222;5.688;2023-02-28T14:46:01;5.60;94.80
14771;DHT22;7477;45.222;5.688;2023-02-28T14:49:26;5.60;94.80
14771;DHT22;7477;45.222;5.688;2023-02-28T14:52:46;5.50;94.40
14771;DHT22;7477;45.222;5.688;2023-02-28T14:56:06;5.50;94.90
14771;DHT22;7477;45.222;5.688;2023-02-28T14:59:29;5.50;94.80
14771;DHT22;7477;45.222;5.688;2023-02-28T15:02:48;5.40;94.60
14771;DHT22;7477;45.222;5.688;2023-02-28T15:06:16;5.40;94.70
14771;DHT22;7477;45.222;5.688;2023-02-28T15:09:36;5.40;94.90
14771;DHT22;7477;45.222;5.688;2023-02-28T15:13:00;5.40;95.00
14771;DHT22;7477;45.222;5.688;2023-02-28T15:16:20;5.40;95.00
14771;DHT22;7477;45.222;5.688;2023-02-28T15:19:42;5.50;95.00
14771;DHT22;7477;45.222;5.688;2023-02-28T15:23:04;5.40;94.80
14771;DHT22;7477;45.222;5.688;2023-02-28T15:26:30;5.40;95.00
14771;DHT22;7477;45.222;5.688;2023-02-28T15:29:55;5.40;95.10
14771;DHT22;7477;45.222;5.688;2023-02-28T15:33:22;5.30;95.00
14771;DHT22;7477;45.222;5.688;2023-02-28T15:36:41;5.40;95.20
14771;DHT22;7477;45.222;5.688;2023-02-28T15:43:37;5.40;95.20
14771;DHT22;7477;45.222;5.688;2023-02-28T15:47:03;5.30;95.10
14771;DHT22;7477;45.222;5.688;2023-02-28T15:50:23;5.30;95.10
14771;DHT22;7477;45.222;5.688;2023-02-28T15:53:56;5.20;95.10
14771;DHT22;7477;45.222;5.688;2023-02-28T15:57:27;5.30;95.10
14771;DHT22;7477;45.222;5.688;2023-02-28T16:01:05;5.20;95.30
14771;DHT22;7477;45.222;5.688;2023-02-28T16:04:25;5.10;95.40
14771;DHT22;7477;45.222;5.688;2023-02-28T16:07:48;5.20;95.30
14771;DHT22;7477;45.222;5.688;2023-02-28T16:11:11;5.10;95.30
14771;DHT22;7477;45.222;5.688;2023-02-28T16:14:30;5.20;95.30
14771;DHT22;7477;45.222;5.688;2023-02-28T16:17:50;5.20;95.20
14771;DHT22;7477;45.222;5.688;2023-02-28T16:21:09;5.10;95.30
14771;DHT22;7477;45.222;5.688;2023-02-28T16:24:29;5.20;95.20
14771;DHT22;7477;45.222;5.688;2023-02-28T16:27:50;5.20;95.30
14771;DHT22;7477;45.222;5.688;2023-02-28T16:31:13;5.10;95.30
14771;DHT22;7477;45.222;5.688;2023-02-28T16:34:35;5.10;95.30
14771;DHT22;7477;45.222;5.688;2023-02-28T16:37:54;5.10;95.30
14771;DHT22;7477;45.222;5.688;2023-02-28T16:41:18;5.10;95.30
14771;DHT22;7477;45.222;5.688;2023-02-28T16:44:38;5.10;95.40
14771;DHT22;7477;45.222;5.688;2023-02-28T16:47:57;5.10;95.30
14771;DHT22;7477;45.222;5.688;2023-02-28T16:51:17;5.10;95.40
14771;DHT22;7477;45.222;5.688;2023-02-28T16:54:38;5.00;95.30
14771;DHT22;7477;45.222;5.688;2023-02-28T16:58:00;5.10;95.40
14771;DHT22;7477;45.222;5.688;2023-02-28T17:01:19;5.00;95.30
14771;DHT22;7477;45.222;5.688;2023-02-28T17:04:41;5.00;95.30
14771;DHT22;7477;45.222;5.688;2023-02-28T17:08:01;5.10;95.40
14771;DHT22;7477;45.222;5.688;2023-02-28T17:11:20;5.00;95.20
14771;DHT22;7477;45.222;5.688;2023-02-28T17:14:40;5.10;95.30
14771;DHT22;7477;45.222;5.688;2023-02-28T17:17:59;5.00;95.10
14771;DHT22;7477;45.222;5.688;2023-02-28T17:21:19;5.00;95.10
14771;DHT22;7477;45.222;5.688;2023-02-28T17:24:38;5.00;95.30
14771;DHT22;7477;45.222;5.688;2023-02-28T17:27:58;5.00;95.10
14771;DHT22;7477;45.222;5.688;2023-02-28T17:31:17;5.00;95.10
14771;DHT22;7477;45.222;5.688;2023-02-28T17:34:37;5.00;95.20
14771;DHT22;7477;45.222;5.688;2023-02-28T17:37:56;5.00;95.20
14771;DHT22;7477;45.222;5.688;2023-02-28T17:41:15;5.00;95.10
14771;DHT22;7477;45.222;5.688;2023-02-28T17:44:34;5.00;95.10
14771;DHT22;7477;45.222;5.688;2023-02-28T17:47:54;5.00;95.00
14771;DHT22;7477;45.222;5.688;2023-02-28T17:51:14;5.00;94.90
14771;DHT22;7477;45.222;5.688;2023-02-28T17:54:33;5.00;95.10
14771;DHT22;7477;45.222;5.688;2023-02-28T17:57:53;5.00;94.90
14771;DHT22;7477;45.222;5.688;2023-02-28T18:01:12;5.00;94.90
14771;DHT22;7477;45.222;5.688;2023-02-28T18:04:31;5.00;94.90
14771;DHT22;7477;45.222;5.688;2023-02-28T18:07:51;5.00;94.90
14771;DHT22;7477;45.222;5.688;2023-02-28T18:11:10;5.00;94.90
14771;DHT22;7477;45.222;5.688;2023-02-28T18:14:36;5.00;94.90
14771;DHT22;7477;45.222;5.688;2023-02-28T18:17:55;5.00;95.00
14771;DHT22;7477;45.222;5.688;2023-02-28T18:21:17;5.00;95.10
14771;DHT22;7477;45.222;5.688;2023-02-28T18:24:36;4.90;95.10
14771;DHT22;7477;45.222;5.688;2023-02-28T18:27:55;5.00;95.20
14771;DHT22;7477;45.222;5.688;2023-02-28T18:31:18;4.90;95.40
14771;DHT22;7477;45.222;5.688;2023-02-28T18:34:38;4.90;95.30
14771;DHT22;7477;45.222;5.688;2023-02-28T18:37:57;4.90;95.00
14771;DHT22;7477;45.222;5.688;2023-02-28T18:41:18;5.00;95.10
14771;DHT22;7477;45.222;5.688;2023-02-28T18:44:41;4.90;94.90
14771;DHT22;7477;45.222;5.688;2023-02-28T18:48:00;5.00;95.00
14771;DHT22;7477;45.222;5.688;2023-02-28T18:51:24;5.00;94.90
14771;DHT22;7477;45.222;5.688;2023-02-28T18:54:43;5.00;94.80
14771;DHT22;7477;45.222;5.688;2023-02-28T18:58:03;5.00;94.90
14771;DHT22;7477;45.222;5.688;2023-02-28T19:01:24;4.90;94.70
14771;DHT22;7477;45.222;5.688;2023-02-28T19:04:47;4.90;94.70
14771;DHT22;7477;45.222;5.688;2023-02-28T19:08:07;4.90;94.80
14771;DHT22;7477;45.222;5.688;2023-02-28T19:11:27;4.90;94.70
14771;DHT22;7477;45.222;5.688;2023-02-28T19:14:46;4.90;94.70
14771;DHT22;7477;45.222;5.688;2023-02-28T19:18:06;4.90;94.70
14771;DHT22;7477;45.222;5.688;2023-02-28T19:21:25;4.90;94.70
14771;DHT22;7477;45.222;5.688;2023-02-28T19:24:44;4.90;94.60
14771;DHT22;7477;45.222;5.688;2023-02-28T19:28:04;4.90;94.80
14771;DHT22;7477;45.222;5.688;2023-02-28T19:31:24;4.90;94.90
14771;DHT22;7477;45.222;5.688;2023-02-28T19:34:45;4.90;95.00
14771;DHT22;7477;45.222;5.688;2023-02-28T19:38:04;4.80;95.00
14771;DHT22;7477;45.222;5.688;2023-02-28T19:41:23;4.80;95.00
14771;DHT22;7477;45.222;5.688;2023-02-28T19:44:43;4.70;95.10
14771;DHT22;7477;45.222;5.688;2023-02-28T19:48:03;4.80;95.10
14771;DHT22;7477;45.222;5.688;2023-02-28T19:51:23;4.70;95.10
14771;DHT22;7477;45.222;5.688;2023-02-28T19:54:42;4.60;95.10
14771;DHT22;7477;45.222;5.688;2023-02-28T19:58:01;4.70;95.20
14771;DHT22;7477;45.222;5.688;2023-02-28T20:01:20;4.70;95.30
14771;DHT22;7477;45.222;5.688;2023-02-28T20:04:39;4.60;95.40
14771;DHT22;7477;45.222;5.688;2023-02-28T20:07:59;4.60;95.40
14771;DHT22;7477;45.222;5.688;2023-02-28T20:11:18;4.50;95.40
14771;DHT22;7477;45.222;5.688;2023-02-28T20:14:37;4.50;95.70
14771;DHT22;7477;45.222;5.688;2023-02-28T20:17:56;4.50;95.50
14771;DHT22;7477;45.222;5.688;2023-02-28T20:21:17;4.50;95.60
14771;DHT22;7477;45.222;5.688;2023-02-28T20:24:37;4.60;95.60
14771;DHT22;7477;45.222;5.688;2023-02-28T20:27:56;4.60;95.70
14771;DHT22;7477;45.222;5.688;2023-02-28T20:31:18;4.50;95.60
14771;DHT22;7477;45.222;5.688;2023-02-28T20:34:38;4.50;95.60
14771;DHT22;7477;45.222;5.688;2023-02-28T20:37:57;4.50;95.70
14771;DHT22;7477;45.222;5.688;2023-02-28T20:41:18;4.50;95.70
14771;DHT22;7477;45.222;5.688;2023-02-28T20:44:37;4.50;95.80
14771;DHT22;7477;45.222;5.688;2023-02-28T20:47:56;4.50;95.80
14771;DHT22;7477;45.222;5.688;2023-02-28T20:51:15;4.50;95.80
14771;DHT22;7477;45.222;5.688;2023-02-28T20:54:35;4.50;95.90
14771;DHT22;7477;45.222;5.688;2023-02-28T20:57:54;4.40;95.90
14771;DHT22;7477;45.222;5.688;2023-02-28T21:01:18;4.40;95.90
14771;DHT22;7477;45.222;5.688;2023-02-28T21:04:37;4.40;96.00
14771;DHT22;7477;45.222;5.688;2023-02-28T21:07:56;4.40;95.90
14771;DHT22;7477;45.222;5.688;2023-02-28T21:11:24;4.40;96.00
14771;DHT22;7477;45.222;5.688;2023-02-28T21:14:43;4.40;96.10
14771;DHT22;7477;45.222;5.688;2023-02-28T21:18:03;4.40;96.10
14771;DHT22;7477;45.222;5.688;2023-02-28T21:21:23;4.40;96.10
14771;DHT22;7477;45.222;5.688;2023-02-28T21:24:42;4.30;96.00
14771;DHT22;7477;45.222;5.688;2023-02-28T21:28:01;4.30;96.10
14771;DHT22;7477;45.222;5.688;2023-02-28T21:31:23;4.30;96.20
14771;DHT22;7477;45.222;5.688;2023-02-28T21:34:42;4.30;96.10
14771;DHT22;7477;45.222;5.688;2023-02-28T21:38:01;4.30;96.10
14771;DHT22;7477;45.222;5.688;2023-02-28T21:41:21;4.30;96.20
14771;DHT22;7477;45.222;5.688;2023-02-28T21:44:42;4.30;96.20
14771;DHT22;7477;45.222;5.688;2023-02-28T21:48:01;4.30;96.20
14771;DHT22;7477;45.222;5.688;2023-02-28T21:51:30;4.30;96.40
14771;DHT22;7477;45.222;5.688;2023-02-28T21:54:49;4.30;96.40
14771;DHT22;7477;45.222;5.688;2023-02-28T21:58:09;4.30;96.30
14771;DHT22;7477;45.222;5.688;2023-02-28T22:01:34;4.30;96.30
14771;DHT22;7477;45.222;5.688;2023-02-28T22:04:54;4.30;96.30
14771;DHT22;7477;45.222;5.688;2023-02-28T22:08:14;4.30;96.30
14771;DHT22;7477;45.222;5.688;2023-02-28T22:11:35;4.30;96.30
14771;DHT22;7477;45.222;5.688;2023-02-28T22:14:54;4.30;96.30
14771;DHT22;7477;45.222;5.688;2023-02-28T22:18:13;4.30;96.40
14771;DHT22;7477;45.222;5.688;2023-02-28T22:21:36;4.30;96.40
14771;DHT22;7477;45.222;5.688;2023-02-28T22:24:55;4.30;96.40
14771;DHT22;7477;45.222;5.688;2023-02-28T22:28:15;4.30;96.60
14771;DHT22;7477;45.222;5.688;2023-02-28T22:31:34;4.20;96.40
14771;DHT22;7477;45.222;5.688;2023-02-28T22:34:54;4.20;96.50
14771;DHT22;7477;45.222;5.688;2023-02-28T22:38:14;4.20;96.50
14771;DHT22;7477;45.222;5.688;2023-02-28T22:41:34;4.30;96.60
14771;DHT22;7477;45.222;5.688;2023-02-28T22:44:53;4.20;96.50
14771;DHT22;7477;45.222;5.688;2023-02-28T22:48:13;4.30;96.60
14771;DHT22;7477;45.222;5.688;2023-02-28T22:51:33;4.20;96.60
14771;DHT22;7477;45.222;5.688;2023-02-28T22:54:53;4.30;96.60
14771;DHT22;7477;45.222;5.688;2023-02-28T22:58:12;4.30;96.60
14771;DHT22;7477;45.222;5.688;2023-02-28T23:01:33;4.30;96.60
14771;DHT22;7477;45.222;5.688;2023-02-28T23:04:54;4.20;96.60
14771;DHT22;7477;45.222;5.688;2023-02-28T23:08:13;4.20;96.80
14771;DHT22;7477;45.222;5.688;2023-02-28T23:11:36;4.30;96.80
14771;DHT22;7477;45.222;5.688;2023-02-28T23:14:56;4.30;96.90
14771;DHT22;7477;45.222;5.688;2023-02-28T23:18:15;4.30;96.90
14771;DHT22;7477;45.222;5.688;2023-02-28T23:21:35;4.20;97.00
14771;DHT22;7477;45.222;5.688;2023-02-28T23:24:54;4.30;97.00
14771;DHT22;7477;45.222;5.688;2023-02-28T23:28:13;4.30;96.90
14771;DHT22;7477;45.222;5.688;2023-02-28T23:31:33;4.20;96.90
14771;DHT22;7477;45.222;5.688;2023-02-28T23:34:52;4.20;97.00
14771;DHT22;7477;45.222;5.688;2023-02-28T23:38:13;4.20;96.90
14771;DHT22;7477;45.222;5.688;2023-02-28T23:41:32;4.30;97.00